DAOO/ORN METAR and TAF weather

Enter ICAO airport designator
Station Type Date Time Source
DAOO METAR 2021/07/29 01:30 UTC NOAA

DAOO 290130Z 35007KT 8000 BKN010 25/22 Q1013


Station Type Date Time Source
DAOO Decoded METAR 2021/07/29 01:30 UTC NOAA

Oran / Es Senia, Algeria (DAOO) 35-38N 000-36W 90M
Jul 28, 2021 - 09:30 PM EDT / 2021.07.29 0130 UTC
Wind: from the N (350 degrees) at 8 MPH (7 KT):0
Visibility: 4 mile(s):0
Sky conditions: mostly cloudy
Temperature: 77 F (25 C)
Dew Point: 71 F (22 C)
Relative Humidity: 83%
Pressure (altimeter): 29.91 in. Hg (1013 hPa)
ob: DAOO 290130Z 35007KT 8000 BKN010 25/22 Q1013
cycle: 1

Station Type Date Time Source
DAOO TAF 2021/07/28 18:33 UTC NOAA

TAF DAOO 281700Z 2818/2918 33012KT 9999 FEW026
BECMG 2819/2821 VRB02KT 6000 SCT010 PROB40
TEMPO 2821/2908 3000 BR BKN010 PROB30
TEMPO 2902/2906 0800 FG
BECMG 2909/2912 34012KT 8000 SCT026

Example: see airport list